Canby, Minnesota
Current Conditions -  °F | °C
As of 8:34 PM on Friday 28 Nov 2014 (Local Time) from KCNB Reporting Station
Overcast Overcast  
Wind Chill: 11°   Ceiling: 900
Heat Index: 20°   Visibility: 10mi
Dew Point: 19°   Wind: 8mph
Humidity: 94%   Direction: 130°SE
Pressure: 29.69"   Gusts: NA
Location:  44.71°N, 96.28°W
Report Text: KCNB 290234Z AUTO 13007KT 10SM OVC009 M06/M07 A2969 RMK AO2 T10651073
Loading
Personal Weather Stations






























Interactive Weather Map New forecast layout! Learn more

10-Day Weather Forecast

Advertisements
Track Severe Weather on mobile